sensor_id;sensor_type;location;lat;lon;timestamp;P1;durP1;ratioP1;P2;durP2;ratioP2
78885;SDS011;68269;52.514;5.722;2023-04-19T00:02:04;13.52;;;5.32;;
78885;SDS011;68269;52.514;5.722;2023-04-19T00:04:37;11.73;;;4.68;;
78885;SDS011;68269;52.514;5.722;2023-04-19T00:07:06;13.63;;;4.97;;
78885;SDS011;68269;52.514;5.722;2023-04-19T00:09:35;14.07;;;5.38;;
78885;SDS011;68269;52.514;5.722;2023-04-19T00:12:05;15.80;;;5.40;;
78885;SDS011;68269;52.514;5.722;2023-04-19T00:14:34;13.57;;;4.65;;
78885;SDS011;68269;52.514;5.722;2023-04-19T00:17:03;13.88;;;5.55;;
78885;SDS011;68269;52.514;5.722;2023-04-19T00:19:33;13.10;;;5.13;;
78885;SDS011;68269;52.514;5.722;2023-04-19T00:22:04;12.20;;;4.45;;
78885;SDS011;68269;52.514;5.722;2023-04-19T00:24:34;11.20;;;3.78;;
78885;SDS011;68269;52.514;5.722;2023-04-19T00:27:03;12.73;;;5.32;;
78885;SDS011;68269;52.514;5.722;2023-04-19T00:29:32;16.55;;;6.00;;
78885;SDS011;68269;52.514;5.722;2023-04-19T00:32:02;12.57;;;4.95;;
78885;SDS011;68269;52.514;5.722;2023-04-19T00:34:32;15.05;;;5.97;;
78885;SDS011;68269;52.514;5.722;2023-04-19T00:37:01;15.65;;;5.47;;
78885;SDS011;68269;52.514;5.722;2023-04-19T00:39:33;12.27;;;4.70;;
78885;SDS011;68269;52.514;5.722;2023-04-19T00:42:04;14.23;;;5.63;;
78885;SDS011;68269;52.514;5.722;2023-04-19T00:44:33;12.80;;;5.50;;
78885;SDS011;68269;52.514;5.722;2023-04-19T00:47:03;11.27;;;4.82;;
78885;SDS011;68269;52.514;5.722;2023-04-19T00:49:33;15.10;;;5.78;;
78885;SDS011;68269;52.514;5.722;2023-04-19T00:52:05;11.63;;;4.93;;
78885;SDS011;68269;52.514;5.722;2023-04-19T00:54:36;12.40;;;5.20;;
78885;SDS011;68269;52.514;5.722;2023-04-19T00:57:06;12.27;;;5.68;;
78885;SDS011;68269;52.514;5.722;2023-04-19T00:59:35;13.82;;;4.82;;
78885;SDS011;68269;52.514;5.722;2023-04-19T01:02:06;11.45;;;5.10;;
78885;SDS011;68269;52.514;5.722;2023-04-19T01:04:36;13.50;;;5.15;;
78885;SDS011;68269;52.514;5.722;2023-04-19T01:07:08;14.35;;;5.15;;
78885;SDS011;68269;52.514;5.722;2023-04-19T01:09:39;12.93;;;4.97;;
78885;SDS011;68269;52.514;5.722;2023-04-19T01:12:08;12.95;;;5.13;;
78885;SDS011;68269;52.514;5.722;2023-04-19T01:14:38;11.15;;;4.65;;
78885;SDS011;68269;52.514;5.722;2023-04-19T01:17:08;13.88;;;5.30;;
78885;SDS011;68269;52.514;5.722;2023-04-19T01:19:38;12.77;;;4.82;;
78885;SDS011;68269;52.514;5.722;2023-04-19T01:25:04;13.85;;;5.45;;
78885;SDS011;68269;52.514;5.722;2023-04-19T01:27:34;11.18;;;4.90;;
78885;SDS011;68269;52.514;5.722;2023-04-19T01:30:04;11.07;;;4.47;;
78885;SDS011;68269;52.514;5.722;2023-04-19T01:32:34;12.40;;;4.72;;
78885;SDS011;68269;52.514;5.722;2023-04-19T01:35:03;12.38;;;4.80;;
78885;SDS011;68269;52.514;5.722;2023-04-19T01:37:38;12.57;;;4.85;;
78885;SDS011;68269;52.514;5.722;2023-04-19T01:40:09;12.73;;;5.78;;
78885;SDS011;68269;52.514;5.722;2023-04-19T01:42:39;13.40;;;5.05;;
78885;SDS011;68269;52.514;5.722;2023-04-19T01:45:09;12.68;;;4.90;;
78885;SDS011;68269;52.514;5.722;2023-04-19T01:47:38;11.85;;;4.50;;
78885;SDS011;68269;52.514;5.722;2023-04-19T01:50:08;13.48;;;5.18;;
78885;SDS011;68269;52.514;5.722;2023-04-19T01:52:40;12.77;;;4.63;;
78885;SDS011;68269;52.514;5.722;2023-04-19T01:55:09;11.85;;;5.10;;
78885;SDS011;68269;52.514;5.722;2023-04-19T01:57:38;13.43;;;4.95;;
78885;SDS011;68269;52.514;5.722;2023-04-19T02:00:08;13.85;;;5.43;;
78885;SDS011;68269;52.514;5.722;2023-04-19T02:02:42;12.10;;;5.20;;
78885;SDS011;68269;52.514;5.722;2023-04-19T02:05:11;13.82;;;5.22;;
78885;SDS011;68269;52.514;5.722;2023-04-19T02:07:44;14.95;;;5.82;;
78885;SDS011;68269;52.514;5.722;2023-04-19T02:10:13;13.95;;;5.13;;
78885;SDS011;68269;52.514;5.722;2023-04-19T02:12:42;14.70;;;5.30;;
78885;SDS011;68269;52.514;5.722;2023-04-19T02:15:11;14.45;;;5.45;;
78885;SDS011;68269;52.514;5.722;2023-04-19T02:17:41;12.00;;;5.20;;
78885;SDS011;68269;52.514;5.722;2023-04-19T02:20:11;14.02;;;4.80;;
78885;SDS011;68269;52.514;5.722;2023-04-19T02:22:43;12.25;;;4.78;;
78885;SDS011;68269;52.514;5.722;2023-04-19T02:25:13;13.48;;;5.18;;
78885;SDS011;68269;52.514;5.722;2023-04-19T02:27:45;13.23;;;5.13;;
78885;SDS011;68269;52.514;5.722;2023-04-19T02:30:16;12.75;;;5.47;;
78885;SDS011;68269;52.514;5.722;2023-04-19T02:32:46;13.75;;;5.47;;
78885;SDS011;68269;52.514;5.722;2023-04-19T02:35:15;13.02;;;5.22;;
78885;SDS011;68269;52.514;5.722;2023-04-19T02:37:47;14.52;;;5.30;;
78885;SDS011;68269;52.514;5.722;2023-04-19T02:40:17;14.43;;;6.07;;
78885;SDS011;68269;52.514;5.722;2023-04-19T02:42:47;12.52;;;5.03;;
78885;SDS011;68269;52.514;5.722;2023-04-19T02:45:16;14.63;;;5.32;;
78885;SDS011;68269;52.514;5.722;2023-04-19T02:47:46;10.60;;;3.85;;
78885;SDS011;68269;52.514;5.722;2023-04-19T02:50:15;13.88;;;5.43;;
78885;SDS011;68269;52.514;5.722;2023-04-19T02:52:51;12.00;;;4.82;;
78885;SDS011;68269;52.514;5.722;2023-04-19T02:55:22;11.95;;;4.78;;
78885;SDS011;68269;52.514;5.722;2023-04-19T02:58:00;11.38;;;4.28;;
78885;SDS011;68269;52.514;5.722;2023-04-19T03:00:31;11.68;;;4.78;;
78885;SDS011;68269;52.514;5.722;2023-04-19T03:03:06;11.80;;;4.43;;
78885;SDS011;68269;52.514;5.722;2023-04-19T03:05:36;12.13;;;4.50;;
78885;SDS011;68269;52.514;5.722;2023-04-19T03:08:08;12.82;;;4.95;;
78885;SDS011;68269;52.514;5.722;2023-04-19T03:10:38;12.23;;;4.38;;
78885;SDS011;68269;52.514;5.722;2023-04-19T03:13:08;15.25;;;5.45;;
78885;SDS011;68269;52.514;5.722;2023-04-19T03:15:37;11.45;;;3.90;;
78885;SDS011;68269;52.514;5.722;2023-04-19T03:18:07;12.40;;;3.40;;
78885;SDS011;68269;52.514;5.722;2023-04-19T03:20:39;12.15;;;4.22;;
78885;SDS011;68269;52.514;5.722;2023-04-19T03:23:11;11.85;;;3.78;;
78885;SDS011;68269;52.514;5.722;2023-04-19T03:25:41;11.93;;;4.10;;
78885;SDS011;68269;52.514;5.722;2023-04-19T03:28:27;12.52;;;4.40;;
78885;SDS011;68269;52.514;5.722;2023-04-19T03:31:15;12.02;;;3.95;;
78885;SDS011;68269;52.514;5.722;2023-04-19T03:33:48;9.13;;;3.00;;
78885;SDS011;68269;52.514;5.722;2023-04-19T03:36:20;9.70;;;3.47;;
78885;SDS011;68269;52.514;5.722;2023-04-19T03:38:53;10.60;;;3.65;;
78885;SDS011;68269;52.514;5.722;2023-04-19T03:41:23;9.95;;;3.70;;
78885;SDS011;68269;52.514;5.722;2023-04-19T03:44:03;11.68;;;3.80;;
78885;SDS011;68269;52.514;5.722;2023-04-19T03:46:33;8.20;;;2.83;;
78885;SDS011;68269;52.514;5.722;2023-04-19T03:49:02;9.68;;;3.58;;
78885;SDS011;68269;52.514;5.722;2023-04-19T03:51:32;11.30;;;3.55;;
78885;SDS011;68269;52.514;5.722;2023-04-19T03:54:04;9.32;;;3.33;;
78885;SDS011;68269;52.514;5.722;2023-04-19T03:56:33;8.52;;;3.65;;
78885;SDS011;68269;52.514;5.722;2023-04-19T03:59:02;12.57;;;4.10;;
78885;SDS011;68269;52.514;5.722;2023-04-19T04:01:35;9.75;;;3.13;;
78885;SDS011;68269;52.514;5.722;2023-04-19T04:04:06;11.40;;;3.67;;
78885;SDS011;68269;52.514;5.722;2023-04-19T04:06:36;13.27;;;4.00;;
78885;SDS011;68269;52.514;5.722;2023-04-19T04:09:08;10.45;;;4.10;;
78885;SDS011;68269;52.514;5.722;2023-04-19T04:11:38;11.88;;;3.60;;
78885;SDS011;68269;52.514;5.722;2023-04-19T04:14:07;10.38;;;3.53;;
78885;SDS011;68269;52.514;5.722;2023-04-19T04:16:38;13.35;;;3.72;;
78885;SDS011;68269;52.514;5.722;2023-04-19T04:19:07;11.88;;;4.00;;
78885;SDS011;68269;52.514;5.722;2023-04-19T04:21:40;9.98;;;3.53;;
78885;SDS011;68269;52.514;5.722;2023-04-19T04:24:12;14.38;;;3.53;;
78885;SDS011;68269;52.514;5.722;2023-04-19T04:26:56;7.28;;;2.90;;
78885;SDS011;68269;52.514;5.722;2023-04-19T04:29:28;8.60;;;3.20;;
78885;SDS011;68269;52.514;5.722;2023-04-19T04:32:02;11.32;;;3.67;;
78885;SDS011;68269;52.514;5.722;2023-04-19T04:34:37;10.35;;;3.40;;
78885;SDS011;68269;52.514;5.722;2023-04-19T04:37:11;9.00;;;2.75;;
78885;SDS011;68269;52.514;5.722;2023-04-19T04:39:43;9.30;;;3.22;;
78885;SDS011;68269;52.514;5.722;2023-04-19T04:42:13;11.00;;;3.65;;
78885;SDS011;68269;52.514;5.722;2023-04-19T04:44:42;9.35;;;3.47;;
78885;SDS011;68269;52.514;5.722;2023-04-19T04:47:12;8.73;;;3.05;;
78885;SDS011;68269;52.514;5.722;2023-04-19T04:49:47;9.50;;;3.85;;
78885;SDS011;68269;52.514;5.722;2023-04-19T04:52:17;9.90;;;3.50;;
78885;SDS011;68269;52.514;5.722;2023-04-19T04:55:03;9.60;;;2.70;;
78885;SDS011;68269;52.514;5.722;2023-04-19T04:57:36;10.27;;;3.22;;
78885;SDS011;68269;52.514;5.722;2023-04-19T05:00:09;11.77;;;2.90;;
78885;SDS011;68269;52.514;5.722;2023-04-19T05:05:33;10.95;;;2.90;;
78885;SDS011;68269;52.514;5.722;2023-04-19T05:08:02;10.00;;;3.00;;
78885;SDS011;68269;52.514;5.722;2023-04-19T05:10:34;9.32;;;3.20;;
78885;SDS011;68269;52.514;5.722;2023-04-19T05:13:04;9.73;;;3.25;;
78885;SDS011;68269;52.514;5.722;2023-04-19T05:15:33;10.38;;;3.40;;
78885;SDS011;68269;52.514;5.722;2023-04-19T05:18:04;11.05;;;3.85;;
78885;SDS011;68269;52.514;5.722;2023-04-19T05:20:34;11.68;;;3.63;;
78885;SDS011;68269;52.514;5.722;2023-04-19T05:23:10;8.85;;;3.53;;
78885;SDS011;68269;52.514;5.722;2023-04-19T05:25:42;8.30;;;2.90;;
78885;SDS011;68269;52.514;5.722;2023-04-19T05:28:12;10.45;;;4.10;;
78885;SDS011;68269;52.514;5.722;2023-04-19T05:31:00;9.05;;;3.08;;
78885;SDS011;68269;52.514;5.722;2023-04-19T05:33:33;9.55;;;3.38;;
78885;SDS011;68269;52.514;5.722;2023-04-19T05:36:03;10.38;;;3.30;;
78885;SDS011;68269;52.514;5.722;2023-04-19T05:38:33;9.82;;;2.70;;
78885;SDS011;68269;52.514;5.722;2023-04-19T05:41:05;10.27;;;3.85;;
78885;SDS011;68269;52.514;5.722;2023-04-19T05:43:34;9.25;;;2.83;;
78885;SDS011;68269;52.514;5.722;2023-04-19T05:46:06;8.88;;;2.90;;
78885;SDS011;68269;52.514;5.722;2023-04-19T05:48:35;8.98;;;2.72;;
78885;SDS011;68269;52.514;5.722;2023-04-19T05:51:27;8.98;;;3.08;;
78885;SDS011;68269;52.514;5.722;2023-04-19T05:54:29;10.07;;;2.95;;
78885;SDS011;68269;52.514;5.722;2023-04-19T05:57:03;7.85;;;2.80;;
78885;SDS011;68269;52.514;5.722;2023-04-19T05:59:33;8.52;;;2.80;;
78885;SDS011;68269;52.514;5.722;2023-04-19T06:02:02;10.07;;;3.22;;
78885;SDS011;68269;52.514;5.722;2023-04-19T06:04:31;7.70;;;2.42;;
78885;SDS011;68269;52.514;5.722;2023-04-19T06:07:01;10.27;;;2.58;;
78885;SDS011;68269;52.514;5.722;2023-04-19T06:09:30;7.18;;;2.22;;
78885;SDS011;68269;52.514;5.722;2023-04-19T06:12:00;9.13;;;2.65;;
78885;SDS011;68269;52.514;5.722;2023-04-19T06:14:31;7.80;;;2.28;;
78885;SDS011;68269;52.514;5.722;2023-04-19T06:17:01;8.20;;;2.35;;
78885;SDS011;68269;52.514;5.722;2023-04-19T06:19:30;10.07;;;2.78;;
78885;SDS011;68269;52.514;5.722;2023-04-19T06:22:01;7.47;;;2.33;;
78885;SDS011;68269;52.514;5.722;2023-04-19T06:24:30;7.30;;;2.15;;
78885;SDS011;68269;52.514;5.722;2023-04-19T06:27:00;8.75;;;2.30;;
78885;SDS011;68269;52.514;5.722;2023-04-19T06:29:31;9.30;;;2.50;;
78885;SDS011;68269;52.514;5.722;2023-04-19T06:32:01;9.18;;;2.97;;
78885;SDS011;68269;52.514;5.722;2023-04-19T06:34:30;8.57;;;2.92;;
78885;SDS011;68269;52.514;5.722;2023-04-19T06:36:59;7.22;;;2.70;;
78885;SDS011;68269;52.514;5.722;2023-04-19T06:39:29;7.80;;;2.35;;
78885;SDS011;68269;52.514;5.722;2023-04-19T06:41:58;7.30;;;2.60;;
78885;SDS011;68269;52.514;5.722;2023-04-19T06:44:30;7.32;;;2.42;;
78885;SDS011;68269;52.514;5.722;2023-04-19T06:47:00;6.80;;;1.90;;
78885;SDS011;68269;52.514;5.722;2023-04-19T06:49:29;8.07;;;2.60;;
78885;SDS011;68269;52.514;5.722;2023-04-19T06:51:59;8.60;;;2.35;;
78885;SDS011;68269;52.514;5.722;2023-04-19T06:54:28;7.97;;;2.05;;
78885;SDS011;68269;52.514;5.722;2023-04-19T06:56:58;11.40;;;2.47;;
78885;SDS011;68269;52.514;5.722;2023-04-19T06:59:27;6.72;;;2.58;;
78885;SDS011;68269;52.514;5.722;2023-04-19T07:02:03;6.82;;;2.10;;
78885;SDS011;68269;52.514;5.722;2023-04-19T07:04:32;9.85;;;2.22;;
78885;SDS011;68269;52.514;5.722;2023-04-19T07:07:02;7.60;;;2.05;;
78885;SDS011;68269;52.514;5.722;2023-04-19T07:09:31;7.03;;;2.15;;
78885;SDS011;68269;52.514;5.722;2023-04-19T07:12:00;9.98;;;2.30;;
78885;SDS011;68269;52.514;5.722;2023-04-19T07:14:32;8.55;;;2.33;;
78885;SDS011;68269;52.514;5.722;2023-04-19T07:17:02;6.78;;;1.90;;
78885;SDS011;68269;52.514;5.722;2023-04-19T07:19:32;5.93;;;1.70;;
78885;SDS011;68269;52.514;5.722;2023-04-19T07:22:02;6.65;;;1.77;;
78885;SDS011;68269;52.514;5.722;2023-04-19T07:24:31;6.85;;;1.95;;
78885;SDS011;68269;52.514;5.722;2023-04-19T07:27:00;6.57;;;1.70;;
78885;SDS011;68269;52.514;5.722;2023-04-19T07:29:32;6.32;;;2.00;;
78885;SDS011;68269;52.514;5.722;2023-04-19T07:32:02;4.93;;;1.52;;
78885;SDS011;68269;52.514;5.722;2023-04-19T07:34:32;5.15;;;1.52;;
78885;SDS011;68269;52.514;5.722;2023-04-19T07:37:01;6.88;;;1.65;;
78885;SDS011;68269;52.514;5.722;2023-04-19T07:39:30;5.60;;;1.48;;
78885;SDS011;68269;52.514;5.722;2023-04-19T07:42:00;5.25;;;1.42;;
78885;SDS011;68269;52.514;5.722;2023-04-19T07:44:29;5.75;;;1.70;;
78885;SDS011;68269;52.514;5.722;2023-04-19T07:47:02;7.05;;;1.98;;
78885;SDS011;68269;52.514;5.722;2023-04-19T07:49:31;5.65;;;1.58;;
78885;SDS011;68269;52.514;5.722;2023-04-19T07:52:02;5.70;;;1.92;;
78885;SDS011;68269;52.514;5.722;2023-04-19T07:54:34;7.47;;;1.88;;
78885;SDS011;68269;52.514;5.722;2023-04-19T07:57:03;8.30;;;1.98;;
78885;SDS011;68269;52.514;5.722;2023-04-19T07:59:33;8.25;;;2.05;;
78885;SDS011;68269;52.514;5.722;2023-04-19T08:02:05;5.85;;;1.65;;
78885;SDS011;68269;52.514;5.722;2023-04-19T08:04:34;7.30;;;1.88;;
78885;SDS011;68269;52.514;5.722;2023-04-19T08:07:04;6.72;;;1.92;;
78885;SDS011;68269;52.514;5.722;2023-04-19T08:09:34;7.38;;;1.80;;
78885;SDS011;68269;52.514;5.722;2023-04-19T08:12:03;5.68;;;1.65;;
78885;SDS011;68269;52.514;5.722;2023-04-19T08:14:33;5.68;;;1.48;;
78885;SDS011;68269;52.514;5.722;2023-04-19T08:17:06;6.88;;;1.48;;
78885;SDS011;68269;52.514;5.722;2023-04-19T08:19:35;5.20;;;1.20;;
78885;SDS011;68269;52.514;5.722;2023-04-19T08:22:05;7.18;;;2.00;;
78885;SDS011;68269;52.514;5.722;2023-04-19T08:24:34;7.03;;;1.60;;
78885;SDS011;68269;52.514;5.722;2023-04-19T08:27:03;6.03;;;1.67;;
78885;SDS011;68269;52.514;5.722;2023-04-19T08:29:32;4.70;;;1.55;;
78885;SDS011;68269;52.514;5.722;2023-04-19T08:32:02;4.78;;;1.75;;
78885;SDS011;68269;52.514;5.722;2023-04-19T08:34:36;7.20;;;1.40;;
78885;SDS011;68269;52.514;5.722;2023-04-19T08:37:06;4.70;;;1.30;;
78885;SDS011;68269;52.514;5.722;2023-04-19T08:39:35;7.97;;;1.65;;
78885;SDS011;68269;52.514;5.722;2023-04-19T08:42:05;6.03;;;1.67;;
78885;SDS011;68269;52.514;5.722;2023-04-19T08:44:35;4.13;;;1.17;;
78885;SDS011;68269;52.514;5.722;2023-04-19T08:47:05;4.18;;;1.00;;
78885;SDS011;68269;52.514;5.722;2023-04-19T08:49:38;4.90;;;1.05;;
78885;SDS011;68269;52.514;5.722;2023-04-19T08:52:08;3.45;;;1.20;;
78885;SDS011;68269;52.514;5.722;2023-04-19T08:54:40;5.80;;;1.40;;
78885;SDS011;68269;52.514;5.722;2023-04-19T08:57:10;2.88;;;0.90;;
78885;SDS011;68269;52.514;5.722;2023-04-19T08:59:40;4.18;;;1.10;;
78885;SDS011;68269;52.514;5.722;2023-04-19T09:02:10;4.82;;;0.90;;
78885;SDS011;68269;52.514;5.722;2023-04-19T09:04:42;4.00;;;0.98;;
78885;SDS011;68269;52.514;5.722;2023-04-19T09:07:21;3.28;;;1.05;;
78885;SDS011;68269;52.514;5.722;2023-04-19T09:10:03;2.72;;;0.88;;
78885;SDS011;68269;52.514;5.722;2023-04-19T09:12:34;4.05;;;1.08;;
78885;SDS011;68269;52.514;5.722;2023-04-19T09:15:04;7.15;;;1.27;;
78885;SDS011;68269;52.514;5.722;2023-04-19T09:17:35;2.60;;;0.70;;
78885;SDS011;68269;52.514;5.722;2023-04-19T09:20:08;2.65;;;0.90;;
78885;SDS011;68269;52.514;5.722;2023-04-19T09:22:38;3.38;;;0.88;;
78885;SDS011;68269;52.514;5.722;2023-04-19T09:25:07;2.88;;;0.75;;
78885;SDS011;68269;52.514;5.722;2023-04-19T09:27:37;4.55;;;0.70;;
78885;SDS011;68269;52.514;5.722;2023-04-19T09:30:07;6.20;;;1.25;;
78885;SDS011;68269;52.514;5.722;2023-04-19T09:32:44;2.75;;;0.88;;
78885;SDS011;68269;52.514;5.722;2023-04-19T09:35:17;3.15;;;0.93;;
78885;SDS011;68269;52.514;5.722;2023-04-19T09:37:57;3.00;;;0.95;;
78885;SDS011;68269;52.514;5.722;2023-04-19T09:40:27;3.80;;;0.88;;
78885;SDS011;68269;52.514;5.722;2023-04-19T09:42:56;3.22;;;0.90;;
78885;SDS011;68269;52.514;5.722;2023-04-19T09:45:26;4.05;;;1.13;;
78885;SDS011;68269;52.514;5.722;2023-04-19T09:48:02;6.18;;;1.38;;
78885;SDS011;68269;52.514;5.722;2023-04-19T09:50:35;3.88;;;1.05;;
78885;SDS011;68269;52.514;5.722;2023-04-19T09:53:17;4.13;;;1.20;;
78885;SDS011;68269;52.514;5.722;2023-04-19T09:55:47;4.03;;;1.30;;
78885;SDS011;68269;52.514;5.722;2023-04-19T09:58:17;4.32;;;1.30;;
78885;SDS011;68269;52.514;5.722;2023-04-19T10:00:47;5.55;;;1.25;;
78885;SDS011;68269;52.514;5.722;2023-04-19T10:03:17;4.80;;;1.40;;
78885;SDS011;68269;52.514;5.722;2023-04-19T10:05:51;4.90;;;1.23;;
78885;SDS011;68269;52.514;5.722;2023-04-19T10:08:20;5.15;;;1.30;;
78885;SDS011;68269;52.514;5.722;2023-04-19T10:10:49;5.75;;;1.70;;
78885;SDS011;68269;52.514;5.722;2023-04-19T10:13:20;4.78;;;1.40;;
78885;SDS011;68269;52.514;5.722;2023-04-19T10:15:49;2.95;;;1.00;;
78885;SDS011;68269;52.514;5.722;2023-04-19T10:18:19;6.57;;;1.75;;
78885;SDS011;68269;52.514;5.722;2023-04-19T10:20:52;4.63;;;1.20;;
78885;SDS011;68269;52.514;5.722;2023-04-19T10:23:25;4.57;;;1.33;;
78885;SDS011;68269;52.514;5.722;2023-04-19T10:25:56;5.45;;;1.50;;
78885;SDS011;68269;52.514;5.722;2023-04-19T10:28:26;6.30;;;1.40;;
78885;SDS011;68269;52.514;5.722;2023-04-19T10:30:57;6.22;;;1.73;;
78885;SDS011;68269;52.514;5.722;2023-04-19T10:33:29;9.00;;;1.88;;
78885;SDS011;68269;52.514;5.722;2023-04-19T10:36:07;8.35;;;1.70;;
78885;SDS011;68269;52.514;5.722;2023-04-19T10:38:38;5.72;;;1.60;;
78885;SDS011;68269;52.514;5.722;2023-04-19T10:41:09;6.82;;;1.92;;
78885;SDS011;68269;52.514;5.722;2023-04-19T10:43:43;4.68;;;1.30;;
78885;SDS011;68269;52.514;5.722;2023-04-19T10:46:15;7.05;;;1.98;;
78885;SDS011;68269;52.514;5.722;2023-04-19T10:49:04;5.22;;;1.38;;
78885;SDS011;68269;52.514;5.722;2023-04-19T10:51:46;4.35;;;1.40;;
78885;SDS011;68269;52.514;5.722;2023-04-19T10:54:29;5.90;;;1.80;;
78885;SDS011;68269;52.514;5.722;2023-04-19T10:56:59;5.88;;;1.90;;
78885;SDS011;68269;52.514;5.722;2023-04-19T10:59:30;5.38;;;1.60;;
78885;SDS011;68269;52.514;5.722;2023-04-19T11:02:00;7.18;;;1.95;;
78885;SDS011;68269;52.514;5.722;2023-04-19T11:07:39;6.57;;;1.70;;
78885;SDS011;68269;52.514;5.722;2023-04-19T11:10:09;5.05;;;1.38;;
78885;SDS011;68269;52.514;5.722;2023-04-19T11:12:42;7.95;;;1.98;;
78885;SDS011;68269;52.514;5.722;2023-04-19T11:15:12;7.10;;;1.80;;
78885;SDS011;68269;52.514;5.722;2023-04-19T11:17:41;7.15;;;1.80;;
78885;SDS011;68269;52.514;5.722;2023-04-19T11:20:11;5.03;;;1.50;;
78885;SDS011;68269;52.514;5.722;2023-04-19T11:22:44;4.45;;;1.20;;
78885;SDS011;68269;52.514;5.722;2023-04-19T11:25:14;5.50;;;1.45;;
78885;SDS011;68269;52.514;5.722;2023-04-19T11:27:46;4.07;;;1.27;;
78885;SDS011;68269;52.514;5.722;2023-04-19T11:30:17;5.45;;;1.48;;
78885;SDS011;68269;52.514;5.722;2023-04-19T11:32:50;5.50;;;1.52;;
78885;SDS011;68269;52.514;5.722;2023-04-19T11:35:21;5.75;;;1.45;;
78885;SDS011;68269;52.514;5.722;2023-04-19T11:37:54;3.13;;;1.23;;
78885;SDS011;68269;52.514;5.722;2023-04-19T11:40:24;5.13;;;1.77;;
78885;SDS011;68269;52.514;5.722;2023-04-19T11:42:54;5.05;;;1.50;;
78885;SDS011;68269;52.514;5.722;2023-04-19T11:45:25;4.75;;;1.45;;
78885;SDS011;68269;52.514;5.722;2023-04-19T11:47:57;4.00;;;1.30;;
78885;SDS011;68269;52.514;5.722;2023-04-19T11:50:29;6.10;;;1.63;;
78885;SDS011;68269;52.514;5.722;2023-04-19T11:53:10;5.68;;;1.65;;
78885;SDS011;68269;52.514;5.722;2023-04-19T11:55:42;5.80;;;1.42;;
78885;SDS011;68269;52.514;5.722;2023-04-19T11:58:24;6.28;;;1.60;;
78885;SDS011;68269;52.514;5.722;2023-04-19T12:00:56;4.82;;;1.30;;
78885;SDS011;68269;52.514;5.722;2023-04-19T12:03:31;4.82;;;1.38;;
78885;SDS011;68269;52.514;5.722;2023-04-19T12:06:01;4.43;;;1.20;;
78885;SDS011;68269;52.514;5.722;2023-04-19T12:08:37;3.80;;;1.17;;
78885;SDS011;68269;52.514;5.722;2023-04-19T12:11:07;4.38;;;1.25;;
78885;SDS011;68269;52.514;5.722;2023-04-19T12:13:36;4.90;;;1.38;;
78885;SDS011;68269;52.514;5.722;2023-04-19T12:16:06;5.10;;;1.42;;
78885;SDS011;68269;52.514;5.722;2023-04-19T12:18:43;4.07;;;1.27;;
78885;SDS011;68269;52.514;5.722;2023-04-19T12:21:23;6.53;;;1.55;;
78885;SDS011;68269;52.514;5.722;2023-04-19T12:23:58;4.80;;;1.40;;
78885;SDS011;68269;52.514;5.722;2023-04-19T12:26:29;8.90;;;1.65;;
78885;SDS011;68269;52.514;5.722;2023-04-19T12:28:59;4.80;;;1.40;;
78885;SDS011;68269;52.514;5.722;2023-04-19T12:31:30;4.82;;;1.20;;
78885;SDS011;68269;52.514;5.722;2023-04-19T12:34:00;4.72;;;1.33;;
78885;SDS011;68269;52.514;5.722;2023-04-19T12:36:29;4.13;;;1.05;;
78885;SDS011;68269;52.514;5.722;2023-04-19T12:39:01;3.92;;;1.42;;
78885;SDS011;68269;52.514;5.722;2023-04-19T12:41:32;5.90;;;1.48;;
78885;SDS011;68269;52.514;5.722;2023-04-19T12:44:01;5.20;;;1.50;;
78885;SDS011;68269;52.514;5.722;2023-04-19T12:46:30;5.15;;;1.20;;
78885;SDS011;68269;52.514;5.722;2023-04-19T12:48:59;6.90;;;1.35;;
78885;SDS011;68269;52.514;5.722;2023-04-19T12:51:29;4.05;;;1.00;;
78885;SDS011;68269;52.514;5.722;2023-04-19T12:54:01;4.85;;;1.42;;
78885;SDS011;68269;52.514;5.722;2023-04-19T12:56:32;6.40;;;1.52;;
78885;SDS011;68269;52.514;5.722;2023-04-19T12:59:01;5.78;;;1.27;;
78885;SDS011;68269;52.514;5.722;2023-04-19T13:01:31;5.60;;;1.35;;
78885;SDS011;68269;52.514;5.722;2023-04-19T13:04:00;5.32;;;1.50;;
78885;SDS011;68269;52.514;5.722;2023-04-19T13:06:30;4.15;;;1.30;;
78885;SDS011;68269;52.514;5.722;2023-04-19T13:09:02;4.72;;;1.42;;
78885;SDS011;68269;52.514;5.722;2023-04-19T13:11:31;3.50;;;1.10;;
78885;SDS011;68269;52.514;5.722;2023-04-19T13:14:01;3.75;;;1.10;;
78885;SDS011;68269;52.514;5.722;2023-04-19T13:16:30;4.90;;;1.20;;
78885;SDS011;68269;52.514;5.722;2023-04-19T13:18:59;4.45;;;1.25;;
78885;SDS011;68269;52.514;5.722;2023-04-19T13:21:29;4.60;;;1.08;;
78885;SDS011;68269;52.514;5.722;2023-04-19T13:23:58;3.55;;;1.13;;
78885;SDS011;68269;52.514;5.722;2023-04-19T13:26:30;4.93;;;1.20;;
78885;SDS011;68269;52.514;5.722;2023-04-19T13:28:59;3.08;;;1.15;;
78885;SDS011;68269;52.514;5.722;2023-04-19T13:31:28;3.95;;;1.33;;
78885;SDS011;68269;52.514;5.722;2023-04-19T13:33:58;4.30;;;1.40;;
78885;SDS011;68269;52.514;5.722;2023-04-19T13:36:28;5.65;;;1.48;;
78885;SDS011;68269;52.514;5.722;2023-04-19T13:38:57;4.43;;;1.30;;
78885;SDS011;68269;52.514;5.722;2023-04-19T13:41:27;4.53;;;1.38;;
78885;SDS011;68269;52.514;5.722;2023-04-19T13:44:00;4.40;;;1.20;;
78885;SDS011;68269;52.514;5.722;2023-04-19T13:46:29;5.50;;;1.02;;
78885;SDS011;68269;52.514;5.722;2023-04-19T13:48:58;3.47;;;1.02;;
78885;SDS011;68269;52.514;5.722;2023-04-19T13:51:28;5.70;;;1.30;;
78885;SDS011;68269;52.514;5.722;2023-04-19T13:53:57;5.18;;;1.42;;
78885;SDS011;68269;52.514;5.722;2023-04-19T13:56:26;4.95;;;1.60;;
78885;SDS011;68269;52.514;5.722;2023-04-19T13:58:58;7.07;;;1.70;;
78885;SDS011;68269;52.514;5.722;2023-04-19T14:01:27;5.25;;;1.00;;
78885;SDS011;68269;52.514;5.722;2023-04-19T14:03:57;4.75;;;1.35;;
78885;SDS011;68269;52.514;5.722;2023-04-19T14:06:26;6.97;;;1.70;;
78885;SDS011;68269;52.514;5.722;2023-04-19T14:08:55;5.32;;;1.40;;
78885;SDS011;68269;52.514;5.722;2023-04-19T14:11:25;8.27;;;2.45;;
78885;SDS011;68269;52.514;5.722;2023-04-19T14:13:54;5.65;;;1.50;;
78885;SDS011;68269;52.514;5.722;2023-04-19T14:16:26;4.25;;;1.27;;
78885;SDS011;68269;52.514;5.722;2023-04-19T14:18:55;6.22;;;1.83;;
78885;SDS011;68269;52.514;5.722;2023-04-19T14:21:25;6.18;;;1.83;;
78885;SDS011;68269;52.514;5.722;2023-04-19T14:23:54;6.18;;;1.70;;
78885;SDS011;68269;52.514;5.722;2023-04-19T14:26:24;6.90;;;1.50;;
78885;SDS011;68269;52.514;5.722;2023-04-19T14:28:53;6.15;;;1.50;;
78885;SDS011;68269;52.514;5.722;2023-04-19T14:31:22;5.82;;;1.75;;
78885;SDS011;68269;52.514;5.722;2023-04-19T14:33:54;5.68;;;1.48;;
78885;SDS011;68269;52.514;5.722;2023-04-19T14:36:24;6.43;;;2.05;;
78885;SDS011;68269;52.514;5.722;2023-04-19T14:38:54;6.68;;;1.65;;
78885;SDS011;68269;52.514;5.722;2023-04-19T14:41:23;5.53;;;1.52;;
78885;SDS011;68269;52.514;5.722;2023-04-19T14:43:52;5.95;;;1.95;;
78885;SDS011;68269;52.514;5.722;2023-04-19T14:46:25;7.18;;;2.15;;
78885;SDS011;68269;52.514;5.722;2023-04-19T14:48:55;6.68;;;1.83;;
78885;SDS011;68269;52.514;5.722;2023-04-19T14:51:28;4.85;;;1.50;;
78885;SDS011;68269;52.514;5.722;2023-04-19T14:53:57;5.95;;;1.70;;
78885;SDS011;68269;52.514;5.722;2023-04-19T14:56:26;5.82;;;1.60;;
78885;SDS011;68269;52.514;5.722;2023-04-19T14:58:56;5.00;;;1.70;;
78885;SDS011;68269;52.514;5.722;2023-04-19T15:01:27;4.70;;;1.30;;
78885;SDS011;68269;52.514;5.722;2023-04-19T15:03:57;6.80;;;1.42;;
78885;SDS011;68269;52.514;5.722;2023-04-19T15:06:26;5.30;;;1.55;;
78885;SDS011;68269;52.514;5.722;2023-04-19T15:08:56;7.53;;;1.95;;
78885;SDS011;68269;52.514;5.722;2023-04-19T15:11:25;3.85;;;1.38;;
78885;SDS011;68269;52.514;5.722;2023-04-19T15:13:55;5.43;;;1.17;;
78885;SDS011;68269;52.514;5.722;2023-04-19T15:16:24;4.50;;;1.10;;